sensor_id;sensor_type;location;lat;lon;timestamp;temperature;humidity
14521;DHT22;7347;50.844;4.490;2022-09-30T07:04:58;18.00;99.90
14521;DHT22;7347;50.844;4.490;2022-09-30T07:07:26;18.10;99.90
14521;DHT22;7347;50.844;4.490;2022-09-30T07:09:53;18.00;99.90
14521;DHT22;7347;50.844;4.490;2022-09-30T07:12:19;18.10;99.90
14521;DHT22;7347;50.844;4.490;2022-09-30T07:14:47;18.10;99.90
14521;DHT22;7347;50.844;4.490;2022-09-30T07:17:14;18.20;99.90
14521;DHT22;7347;50.844;4.490;2022-09-30T07:19:40;18.30;99.90
14521;DHT22;7347;50.844;4.490;2022-09-30T07:22:09;18.10;99.90
14521;DHT22;7347;50.844;4.490;2022-09-30T07:24:54;17.50;99.90
14521;DHT22;7347;50.844;4.490;2022-09-30T07:27:21;17.50;99.90
14521;DHT22;7347;50.844;4.490;2022-09-30T07:29:48;18.00;99.90
14521;DHT22;7347;50.844;4.490;2022-09-30T07:32:15;18.30;99.90
14521;DHT22;7347;50.844;4.490;2022-09-30T07:34:43;18.00;99.90
14521;DHT22;7347;50.844;4.490;2022-09-30T07:37:12;17.90;99.90
14521;DHT22;7347;50.844;4.490;2022-09-30T07:39:40;17.90;99.90
14521;DHT22;7347;50.844;4.490;2022-09-30T07:42:07;18.10;99.90
14521;DHT22;7347;50.844;4.490;2022-09-30T07:44:34;18.20;99.90
14521;DHT22;7347;50.844;4.490;2022-09-30T07:47:01;18.60;99.90
14521;DHT22;7347;50.844;4.490;2022-09-30T07:49:28;18.30;99.90
14521;DHT22;7347;50.844;4.490;2022-09-30T07:51:57;18.50;99.90
14521;DHT22;7347;50.844;4.490;2022-09-30T07:54:27;18.50;99.90
14521;DHT22;7347;50.844;4.490;2022-09-30T07:56:55;18.20;99.90
14521;DHT22;7347;50.844;4.490;2022-09-30T07:59:23;18.30;99.90
14521;DHT22;7347;50.844;4.490;2022-09-30T08:01:50;18.40;99.90
14521;DHT22;7347;50.844;4.490;2022-09-30T08:04:18;18.50;99.90
14521;DHT22;7347;50.844;4.490;2022-09-30T08:06:47;18.90;99.90
14521;DHT22;7347;50.844;4.490;2022-09-30T08:09:16;18.80;99.90
14521;DHT22;7347;50.844;4.490;2022-09-30T08:11:44;18.70;99.90
14521;DHT22;7347;50.844;4.490;2022-09-30T08:14:13;18.30;99.90
14521;DHT22;7347;50.844;4.490;2022-09-30T08:16:40;18.10;99.90
14521;DHT22;7347;50.844;4.490;2022-09-30T08:19:08;18.20;99.90
14521;DHT22;7347;50.844;4.490;2022-09-30T08:21:38;17.90;99.90
14521;DHT22;7347;50.844;4.490;2022-09-30T08:24:05;18.30;99.90
14521;DHT22;7347;50.844;4.490;2022-09-30T08:26:31;17.90;99.90
14521;DHT22;7347;50.844;4.490;2022-09-30T08:29:00;17.80;99.90
14521;DHT22;7347;50.844;4.490;2022-09-30T08:31:26;17.80;99.90
14521;DHT22;7347;50.844;4.490;2022-09-30T08:33:54;17.60;99.90
14521;DHT22;7347;50.844;4.490;2022-09-30T08:36:23;17.90;99.90
14521;DHT22;7347;50.844;4.490;2022-09-30T08:38:50;18.30;99.90
14521;DHT22;7347;50.844;4.490;2022-09-30T08:41:29;18.40;99.90
14521;DHT22;7347;50.844;4.490;2022-09-30T08:44:16;18.30;99.90
14521;DHT22;7347;50.844;4.490;2022-09-30T08:46:52;18.50;99.90
14521;DHT22;7347;50.844;4.490;2022-09-30T08:49:34;18.60;99.90
14521;DHT22;7347;50.844;4.490;2022-09-30T08:52:09;18.70;99.90
14521;DHT22;7347;50.844;4.490;2022-09-30T08:54:38;18.90;99.90
14521;DHT22;7347;50.844;4.490;2022-09-30T08:57:10;18.60;99.90
14521;DHT22;7347;50.844;4.490;2022-09-30T08:59:43;18.10;99.90
14521;DHT22;7347;50.844;4.490;2022-09-30T09:02:15;18.10;99.90
14521;DHT22;7347;50.844;4.490;2022-09-30T09:04:45;17.80;99.90
14521;DHT22;7347;50.844;4.490;2022-09-30T09:07:21;17.60;99.90
14521;DHT22;7347;50.844;4.490;2022-09-30T09:09:56;17.20;99.90
14521;DHT22;7347;50.844;4.490;2022-09-30T09:12:35;16.80;99.90
14521;DHT22;7347;50.844;4.490;2022-09-30T09:15:17;16.50;99.90
14521;DHT22;7347;50.844;4.490;2022-09-30T09:18:02;16.30;99.90
14521;DHT22;7347;50.844;4.490;2022-09-30T09:20:33;16.10;99.90
14521;DHT22;7347;50.844;4.490;2022-09-30T09:23:02;16.20;99.90
14521;DHT22;7347;50.844;4.490;2022-09-30T09:25:31;15.90;99.90
14521;DHT22;7347;50.844;4.490;2022-09-30T09:27:59;15.80;99.90
14521;DHT22;7347;50.844;4.490;2022-09-30T09:30:30;15.80;99.90
14521;DHT22;7347;50.844;4.490;2022-09-30T09:33:01;15.80;99.90
14521;DHT22;7347;50.844;4.490;2022-09-30T09:35:39;15.60;99.90
14521;DHT22;7347;50.844;4.490;2022-09-30T09:38:16;15.60;99.90
14521;DHT22;7347;50.844;4.490;2022-09-30T09:41:07;15.80;99.90
14521;DHT22;7347;50.844;4.490;2022-09-30T09:43:48;15.90;99.90
14521;DHT22;7347;50.844;4.490;2022-09-30T09:46:22;16.00;99.90
14521;DHT22;7347;50.844;4.490;2022-09-30T09:54:50;16.20;99.90
14521;DHT22;7347;50.844;4.490;2022-09-30T09:57:22;16.30;99.90
14521;DHT22;7347;50.844;4.490;2022-09-30T09:59:57;16.30;99.90
14521;DHT22;7347;50.844;4.490;2022-09-30T10:02:28;16.30;99.90
14521;DHT22;7347;50.844;4.490;2022-09-30T10:04:56;16.40;99.90
14521;DHT22;7347;50.844;4.490;2022-09-30T10:07:29;16.40;99.90
14521;DHT22;7347;50.844;4.490;2022-09-30T10:10:15;16.50;99.90
14521;DHT22;7347;50.844;4.490;2022-09-30T10:12:43;16.40;99.90
14521;DHT22;7347;50.844;4.490;2022-09-30T10:15:19;16.30;99.90
14521;DHT22;7347;50.844;4.490;2022-09-30T10:17:53;16.30;99.90
14521;DHT22;7347;50.844;4.490;2022-09-30T10:20:28;16.40;99.90
14521;DHT22;7347;50.844;4.490;2022-09-30T10:23:09;16.50;99.90
14521;DHT22;7347;50.844;4.490;2022-09-30T10:25:36;16.50;99.90
14521;DHT22;7347;50.844;4.490;2022-09-30T10:28:19;16.60;99.90
14521;DHT22;7347;50.844;4.490;2022-09-30T10:30:49;16.60;99.90
14521;DHT22;7347;50.844;4.490;2022-09-30T10:33:27;16.80;99.90
14521;DHT22;7347;50.844;4.490;2022-09-30T10:36:09;16.80;99.90
14521;DHT22;7347;50.844;4.490;2022-09-30T10:38:45;16.80;99.90
14521;DHT22;7347;50.844;4.490;2022-09-30T10:41:21;16.60;99.90
14521;DHT22;7347;50.844;4.490;2022-09-30T10:43:50;16.60;99.90
14521;DHT22;7347;50.844;4.490;2022-09-30T10:46:21;16.50;99.90
14521;DHT22;7347;50.844;4.490;2022-09-30T10:48:51;16.60;99.90
14521;DHT22;7347;50.844;4.490;2022-09-30T10:51:25;16.50;99.90
14521;DHT22;7347;50.844;4.490;2022-09-30T10:53:52;16.60;99.90
14521;DHT22;7347;50.844;4.490;2022-09-30T10:56:41;16.50;99.90
14521;DHT22;7347;50.844;4.490;2022-09-30T10:59:21;16.50;99.90
14521;DHT22;7347;50.844;4.490;2022-09-30T11:01:52;16.50;99.90
14521;DHT22;7347;50.844;4.490;2022-09-30T11:04:26;16.70;99.90
14521;DHT22;7347;50.844;4.490;2022-09-30T11:07:01;17.00;99.90
14521;DHT22;7347;50.844;4.490;2022-09-30T11:09:33;16.70;99.90
14521;DHT22;7347;50.844;4.490;2022-09-30T11:12:08;16.80;99.90
14521;DHT22;7347;50.844;4.490;2022-09-30T11:14:43;16.90;99.90
14521;DHT22;7347;50.844;4.490;2022-09-30T11:17:20;17.10;99.90
14521;DHT22;7347;50.844;4.490;2022-09-30T11:19:53;17.30;99.90
14521;DHT22;7347;50.844;4.490;2022-09-30T11:22:34;17.40;99.90
14521;DHT22;7347;50.844;4.490;2022-09-30T11:25:01;17.40;99.90
14521;DHT22;7347;50.844;4.490;2022-09-30T11:27:38;17.50;99.90
14521;DHT22;7347;50.844;4.490;2022-09-30T11:30:10;17.60;99.90
14521;DHT22;7347;50.844;4.490;2022-09-30T11:33:00;17.80;99.90
14521;DHT22;7347;50.844;4.490;2022-09-30T11:35:40;17.80;99.90
14521;DHT22;7347;50.844;4.490;2022-09-30T11:38:18;17.80;99.90
14521;DHT22;7347;50.844;4.490;2022-09-30T11:40:53;17.60;99.90
14521;DHT22;7347;50.844;4.490;2022-09-30T11:43:30;17.70;99.90
14521;DHT22;7347;50.844;4.490;2022-09-30T11:46:16;17.70;99.90
14521;DHT22;7347;50.844;4.490;2022-09-30T11:48:59;17.70;99.90
14521;DHT22;7347;50.844;4.490;2022-09-30T11:51:31;17.80;99.90
14521;DHT22;7347;50.844;4.490;2022-09-30T11:54:15;17.80;99.90
14521;DHT22;7347;50.844;4.490;2022-09-30T11:56:50;17.70;99.90
14521;DHT22;7347;50.844;4.490;2022-09-30T11:59:21;17.70;99.90
14521;DHT22;7347;50.844;4.490;2022-09-30T12:01:53;17.80;99.90
14521;DHT22;7347;50.844;4.490;2022-09-30T12:04:25;17.80;99.90
14521;DHT22;7347;50.844;4.490;2022-09-30T12:07:00;17.80;99.90
14521;DHT22;7347;50.844;4.490;2022-09-30T12:09:31;17.90;99.90
14521;DHT22;7347;50.844;4.490;2022-09-30T12:12:05;18.00;99.90
14521;DHT22;7347;50.844;4.490;2022-09-30T12:14:36;17.90;99.90
14521;DHT22;7347;50.844;4.490;2022-09-30T12:17:11;17.70;99.90
14521;DHT22;7347;50.844;4.490;2022-09-30T12:19:44;17.70;99.90
14521;DHT22;7347;50.844;4.490;2022-09-30T12:22:19;17.60;99.90
14521;DHT22;7347;50.844;4.490;2022-09-30T12:24:46;17.80;99.90
14521;DHT22;7347;50.844;4.490;2022-09-30T12:27:16;17.90;99.90
14521;DHT22;7347;50.844;4.490;2022-09-30T12:29:50;18.00;99.90
14521;DHT22;7347;50.844;4.490;2022-09-30T12:39:06;18.50;99.90
14521;DHT22;7347;50.844;4.490;2022-09-30T12:41:48;18.30;99.90
14521;DHT22;7347;50.844;4.490;2022-09-30T12:44:46;18.40;99.90
14521;DHT22;7347;50.844;4.490;2022-09-30T12:47:29;18.40;99.90
14521;DHT22;7347;50.844;4.490;2022-09-30T12:49:58;18.60;99.90
14521;DHT22;7347;50.844;4.490;2022-09-30T12:52:31;18.60;99.90
14521;DHT22;7347;50.844;4.490;2022-09-30T12:55:05;18.50;99.90
14521;DHT22;7347;50.844;4.490;2022-09-30T12:57:37;18.30;99.90
14521;DHT22;7347;50.844;4.490;2022-09-30T13:00:13;18.10;99.90
14521;DHT22;7347;50.844;4.490;2022-09-30T13:02:42;18.30;99.90
14521;DHT22;7347;50.844;4.490;2022-09-30T13:08:42;18.40;99.90
14521;DHT22;7347;50.844;4.490;2022-09-30T13:11:44;18.50;99.90
14521;DHT22;7347;50.844;4.490;2022-09-30T13:14:22;18.40;99.90
14521;DHT22;7347;50.844;4.490;2022-09-30T13:19:48;18.40;99.90
14521;DHT22;7347;50.844;4.490;2022-09-30T13:25:12;18.30;99.90
14521;DHT22;7347;50.844;4.490;2022-09-30T13:27:43;18.30;99.90
14521;DHT22;7347;50.844;4.490;2022-09-30T13:30:35;18.40;99.90
14521;DHT22;7347;50.844;4.490;2022-09-30T13:33:28;18.30;99.90
14521;DHT22;7347;50.844;4.490;2022-09-30T13:35:57;18.10;99.90
14521;DHT22;7347;50.844;4.490;2022-09-30T13:38:33;17.90;99.90
14521;DHT22;7347;50.844;4.490;2022-09-30T13:41:03;17.80;99.90
14521;DHT22;7347;50.844;4.490;2022-09-30T13:43:38;17.90;99.90
14521;DHT22;7347;50.844;4.490;2022-09-30T13:46:10;18.00;99.90
14521;DHT22;7347;50.844;4.490;2022-09-30T13:48:41;17.90;99.90
14521;DHT22;7347;50.844;4.490;2022-09-30T13:51:11;17.90;99.90
14521;DHT22;7347;50.844;4.490;2022-09-30T13:53:43;18.00;99.90
14521;DHT22;7347;50.844;4.490;2022-09-30T13:56:17;18.00;99.90
14521;DHT22;7347;50.844;4.490;2022-09-30T13:59:08;18.00;99.90
14521;DHT22;7347;50.844;4.490;2022-09-30T14:01:48;18.10;99.90
14521;DHT22;7347;50.844;4.490;2022-09-30T14:07:22;17.90;99.90
14521;DHT22;7347;50.844;4.490;2022-09-30T14:10:06;18.00;99.90
14521;DHT22;7347;50.844;4.490;2022-09-30T14:12:48;18.10;99.90
14521;DHT22;7347;50.844;4.490;2022-09-30T14:15:43;18.00;99.90
14521;DHT22;7347;50.844;4.490;2022-09-30T14:18:55;17.90;99.90
14521;DHT22;7347;50.844;4.490;2022-09-30T14:21:34;17.80;99.90
14521;DHT22;7347;50.844;4.490;2022-09-30T14:24:09;17.60;99.90
14521;DHT22;7347;50.844;4.490;2022-09-30T14:26:48;17.50;99.90
14521;DHT22;7347;50.844;4.490;2022-09-30T14:29:26;17.70;99.90
14521;DHT22;7347;50.844;4.490;2022-09-30T14:31:56;17.90;99.90
14521;DHT22;7347;50.844;4.490;2022-09-30T14:34:24;17.70;99.90
14521;DHT22;7347;50.844;4.490;2022-09-30T14:36:54;17.70;99.90
14521;DHT22;7347;50.844;4.490;2022-09-30T14:39:26;17.70;99.90
14521;DHT22;7347;50.844;4.490;2022-09-30T14:41:57;17.70;99.90
14521;DHT22;7347;50.844;4.490;2022-09-30T14:44:29;17.70;99.90
14521;DHT22;7347;50.844;4.490;2022-09-30T14:47:00;17.70;99.90
14521;DHT22;7347;50.844;4.490;2022-09-30T14:49:31;17.60;99.90
14521;DHT22;7347;50.844;4.490;2022-09-30T14:52:01;17.50;99.90
14521;DHT22;7347;50.844;4.490;2022-09-30T14:54:30;17.40;99.90
14521;DHT22;7347;50.844;4.490;2022-09-30T14:56:59;17.40;99.90
14521;DHT22;7347;50.844;4.490;2022-09-30T14:59:28;17.30;99.90
14521;DHT22;7347;50.844;4.490;2022-09-30T15:01:58;17.40;99.90
14521;DHT22;7347;50.844;4.490;2022-09-30T15:04:28;17.40;99.90
14521;DHT22;7347;50.844;4.490;2022-09-30T15:06:56;17.30;99.90
14521;DHT22;7347;50.844;4.490;2022-09-30T15:09:28;17.20;99.90
14521;DHT22;7347;50.844;4.490;2022-09-30T15:12:02;17.10;99.90
14521;DHT22;7347;50.844;4.490;2022-09-30T15:14:29;17.20;99.90
14521;DHT22;7347;50.844;4.490;2022-09-30T15:16:57;17.20;99.90
14521;DHT22;7347;50.844;4.490;2022-09-30T15:19:28;17.20;99.90
14521;DHT22;7347;50.844;4.490;2022-09-30T15:21:56;17.20;99.90
14521;DHT22;7347;50.844;4.490;2022-09-30T15:24:27;17.10;99.90
14521;DHT22;7347;50.844;4.490;2022-09-30T15:26:55;17.10;99.90
14521;DHT22;7347;50.844;4.490;2022-09-30T15:29:22;16.90;99.90
14521;DHT22;7347;50.844;4.490;2022-09-30T15:31:52;16.90;99.90
14521;DHT22;7347;50.844;4.490;2022-09-30T15:34:21;16.90;99.90
14521;DHT22;7347;50.844;4.490;2022-09-30T15:36:57;16.80;99.90
14521;DHT22;7347;50.844;4.490;2022-09-30T15:39:29;16.80;99.90
14521;DHT22;7347;50.844;4.490;2022-09-30T15:42:29;16.60;99.90
14521;DHT22;7347;50.844;4.490;2022-09-30T15:45:00;16.60;99.90
14521;DHT22;7347;50.844;4.490;2022-09-30T15:47:27;16.60;99.90
14521;DHT22;7347;50.844;4.490;2022-09-30T15:49:54;16.60;99.90
14521;DHT22;7347;50.844;4.490;2022-09-30T15:52:36;16.60;99.90
14521;DHT22;7347;50.844;4.490;2022-09-30T15:55:33;16.60;99.90
14521;DHT22;7347;50.844;4.490;2022-09-30T15:58:01;16.50;99.90
14521;DHT22;7347;50.844;4.490;2022-09-30T16:00:33;16.30;99.90
14521;DHT22;7347;50.844;4.490;2022-09-30T16:03:24;16.20;99.90
14521;DHT22;7347;50.844;4.490;2022-09-30T16:05:52;16.10;99.90
14521;DHT22;7347;50.844;4.490;2022-09-30T16:08:22;16.00;99.90
14521;DHT22;7347;50.844;4.490;2022-09-30T16:10:50;16.00;99.90
14521;DHT22;7347;50.844;4.490;2022-09-30T16:13:20;16.00;99.90
14521;DHT22;7347;50.844;4.490;2022-09-30T16:15:50;15.80;99.90
14521;DHT22;7347;50.844;4.490;2022-09-30T16:18:20;15.70;99.90
14521;DHT22;7347;50.844;4.490;2022-09-30T16:20:59;15.70;99.90
14521;DHT22;7347;50.844;4.490;2022-09-30T16:23:29;15.70;99.90
14521;DHT22;7347;50.844;4.490;2022-09-30T16:26:22;15.60;99.90
14521;DHT22;7347;50.844;4.490;2022-09-30T16:28:53;15.50;99.90
14521;DHT22;7347;50.844;4.490;2022-09-30T16:31:20;15.50;99.90
14521;DHT22;7347;50.844;4.490;2022-09-30T16:33:48;15.40;99.90
14521;DHT22;7347;50.844;4.490;2022-09-30T16:36:14;15.40;99.90
14521;DHT22;7347;50.844;4.490;2022-09-30T16:38:43;15.40;99.90
14521;DHT22;7347;50.844;4.490;2022-09-30T16:41:10;15.40;99.90
14521;DHT22;7347;50.844;4.490;2022-09-30T16:43:38;15.30;99.90
14521;DHT22;7347;50.844;4.490;2022-09-30T16:46:05;15.20;99.90
14521;DHT22;7347;50.844;4.490;2022-09-30T16:48:32;15.00;99.90
14521;DHT22;7347;50.844;4.490;2022-09-30T16:51:02;15.00;99.90
14521;DHT22;7347;50.844;4.490;2022-09-30T16:53:29;15.00;99.90
14521;DHT22;7347;50.844;4.490;2022-09-30T16:55:58;15.00;99.90
14521;DHT22;7347;50.844;4.490;2022-09-30T16:58:25;14.90;99.90
14521;DHT22;7347;50.844;4.490;2022-09-30T17:00:52;14.90;99.90
14521;DHT22;7347;50.844;4.490;2022-09-30T17:03:19;14.90;99.90
14521;DHT22;7347;50.844;4.490;2022-09-30T17:05:47;14.80;99.90
14521;DHT22;7347;50.844;4.490;2022-09-30T17:08:17;14.80;99.90
14521;DHT22;7347;50.844;4.490;2022-09-30T17:10:46;14.80;99.90
14521;DHT22;7347;50.844;4.490;2022-09-30T17:13:16;14.80;99.90
14521;DHT22;7347;50.844;4.490;2022-09-30T17:15:48;14.80;99.90
14521;DHT22;7347;50.844;4.490;2022-09-30T17:18:15;14.70;99.90
14521;DHT22;7347;50.844;4.490;2022-09-30T17:20:44;14.60;99.90
14521;DHT22;7347;50.844;4.490;2022-09-30T17:23:13;14.60;99.90
14521;DHT22;7347;50.844;4.490;2022-09-30T17:25:40;14.60;99.90
14521;DHT22;7347;50.844;4.490;2022-09-30T17:28:08;14.60;99.90
14521;DHT22;7347;50.844;4.490;2022-09-30T17:30:36;14.50;99.90
14521;DHT22;7347;50.844;4.490;2022-09-30T17:33:06;14.40;99.90
14521;DHT22;7347;50.844;4.490;2022-09-30T17:35:34;14.40;99.90
14521;DHT22;7347;50.844;4.490;2022-09-30T17:38:05;14.30;99.90
14521;DHT22;7347;50.844;4.490;2022-09-30T17:40:32;14.20;99.90
14521;DHT22;7347;50.844;4.490;2022-09-30T17:43:16;14.20;99.90
14521;DHT22;7347;50.844;4.490;2022-09-30T17:45:45;14.10;99.90
14521;DHT22;7347;50.844;4.490;2022-09-30T17:48:14;14.10;99.90
14521;DHT22;7347;50.844;4.490;2022-09-30T17:50:44;14.10;99.90
14521;DHT22;7347;50.844;4.490;2022-09-30T17:53:12;14.00;99.90
14521;DHT22;7347;50.844;4.490;2022-09-30T17:55:41;13.90;99.90
14521;DHT22;7347;50.844;4.490;2022-09-30T17:58:12;13.80;99.90
14521;DHT22;7347;50.844;4.490;2022-09-30T18:00:39;13.80;99.90
14521;DHT22;7347;50.844;4.490;2022-09-30T18:03:08;13.70;99.90
14521;DHT22;7347;50.844;4.490;2022-09-30T18:05:35;13.70;99.90
14521;DHT22;7347;50.844;4.490;2022-09-30T18:08:02;13.70;99.90
14521;DHT22;7347;50.844;4.490;2022-09-30T18:10:30;13.70;99.90
14521;DHT22;7347;50.844;4.490;2022-09-30T18:12:56;13.50;99.90
14521;DHT22;7347;50.844;4.490;2022-09-30T18:15:24;13.50;99.90
14521;DHT22;7347;50.844;4.490;2022-09-30T18:17:51;13.60;99.90
14521;DHT22;7347;50.844;4.490;2022-09-30T18:20:19;13.60;99.90
14521;DHT22;7347;50.844;4.490;2022-09-30T18:22:46;13.60;99.90
14521;DHT22;7347;50.844;4.490;2022-09-30T18:25:13;13.70;99.90
14521;DHT22;7347;50.844;4.490;2022-09-30T18:27:48;13.70;99.90
14521;DHT22;7347;50.844;4.490;2022-09-30T18:30:15;13.70;99.90
14521;DHT22;7347;50.844;4.490;2022-09-30T18:32:46;13.70;99.90
14521;DHT22;7347;50.844;4.490;2022-09-30T18:35:13;13.70;99.90
14521;DHT22;7347;50.844;4.490;2022-09-30T18:37:44;13.70;99.90
14521;DHT22;7347;50.844;4.490;2022-09-30T18:40:12;13.80;99.90
14521;DHT22;7347;50.844;4.490;2022-09-30T18:42:41;13.80;99.90
14521;DHT22;7347;50.844;4.490;2022-09-30T18:45:08;13.80;99.90
14521;DHT22;7347;50.844;4.490;2022-09-30T18:47:37;13.80;99.90
14521;DHT22;7347;50.844;4.490;2022-09-30T18:50:05;13.80;99.90
14521;DHT22;7347;50.844;4.490;2022-09-30T18:52:32;13.90;99.90
14521;DHT22;7347;50.844;4.490;2022-09-30T18:55:00;13.90;99.90
14521;DHT22;7347;50.844;4.490;2022-09-30T18:57:27;13.90;99.90
14521;DHT22;7347;50.844;4.490;2022-09-30T18:59:55;13.90;99.90
14521;DHT22;7347;50.844;4.490;2022-09-30T19:02:23;13.90;99.90
14521;DHT22;7347;50.844;4.490;2022-09-30T19:04:51;13.90;99.90
14521;DHT22;7347;50.844;4.490;2022-09-30T19:07:18;13.90;99.90
14521;DHT22;7347;50.844;4.490;2022-09-30T19:09:45;13.90;99.90
14521;DHT22;7347;50.844;4.490;2022-09-30T19:12:13;13.90;99.90
14521;DHT22;7347;50.844;4.490;2022-09-30T19:14:42;14.00;99.90
14521;DHT22;7347;50.844;4.490;2022-09-30T19:17:09;13.90;99.90
14521;DHT22;7347;50.844;4.490;2022-09-30T19:19:36;13.90;99.90
14521;DHT22;7347;50.844;4.490;2022-09-30T19:22:05;13.90;99.90
14521;DHT22;7347;50.844;4.490;2022-09-30T19:24:32;13.80;99.90
14521;DHT22;7347;50.844;4.490;2022-09-30T19:26:59;13.80;99.90
14521;DHT22;7347;50.844;4.490;2022-09-30T19:29:28;13.80;99.90
14521;DHT22;7347;50.844;4.490;2022-09-30T19:31:54;13.80;99.90
14521;DHT22;7347;50.844;4.490;2022-09-30T19:34:22;13.80;99.90
14521;DHT22;7347;50.844;4.490;2022-09-30T19:36:49;13.80;99.90
14521;DHT22;7347;50.844;4.490;2022-09-30T19:39:17;13.90;99.90
14521;DHT22;7347;50.844;4.490;2022-09-30T19:41:44;13.90;99.90
14521;DHT22;7347;50.844;4.490;2022-09-30T19:44:11;13.90;99.90
14521;DHT22;7347;50.844;4.490;2022-09-30T19:46:44;13.90;99.90
14521;DHT22;7347;50.844;4.490;2022-09-30T19:49:13;13.90;99.90
14521;DHT22;7347;50.844;4.490;2022-09-30T19:51:40;13.90;99.90
14521;DHT22;7347;50.844;4.490;2022-09-30T19:54:07;13.90;99.90
14521;DHT22;7347;50.844;4.490;2022-09-30T19:56:35;13.90;99.90
14521;DHT22;7347;50.844;4.490;2022-09-30T19:59:03;13.90;99.90
14521;DHT22;7347;50.844;4.490;2022-09-30T20:01:30;13.90;99.90
14521;DHT22;7347;50.844;4.490;2022-09-30T20:04:00;13.90;99.90
14521;DHT22;7347;50.844;4.490;2022-09-30T20:06:29;14.00;99.90
14521;DHT22;7347;50.844;4.490;2022-09-30T20:08:58;14.00;99.90
14521;DHT22;7347;50.844;4.490;2022-09-30T20:11:28;14.00;99.90
14521;DHT22;7347;50.844;4.490;2022-09-30T20:13:58;14.00;99.90
14521;DHT22;7347;50.844;4.490;2022-09-30T20:16:43;13.90;99.90
14521;DHT22;7347;50.844;4.490;2022-09-30T20:19:12;14.00;99.90
14521;DHT22;7347;50.844;4.490;2022-09-30T20:21:39;13.90;99.90
14521;DHT22;7347;50.844;4.490;2022-09-30T20:24:07;14.00;99.90
14521;DHT22;7347;50.844;4.490;2022-09-30T20:26:34;14.00;99.90
14521;DHT22;7347;50.844;4.490;2022-09-30T20:29:01;14.00;99.90
14521;DHT22;7347;50.844;4.490;2022-09-30T20:31:28;14.00;99.90
14521;DHT22;7347;50.844;4.490;2022-09-30T20:33:55;14.00;99.90
14521;DHT22;7347;50.844;4.490;2022-09-30T20:36:24;14.00;99.90
14521;DHT22;7347;50.844;4.490;2022-09-30T20:38:52;14.10;99.90
14521;DHT22;7347;50.844;4.490;2022-09-30T20:41:23;14.10;99.90
14521;DHT22;7347;50.844;4.490;2022-09-30T20:43:50;14.10;99.90
14521;DHT22;7347;50.844;4.490;2022-09-30T20:46:18;14.10;99.90
14521;DHT22;7347;50.844;4.490;2022-09-30T20:48:45;14.10;99.90
14521;DHT22;7347;50.844;4.490;2022-09-30T20:51:13;14.20;99.90
14521;DHT22;7347;50.844;4.490;2022-09-30T20:53:42;14.20;99.90
14521;DHT22;7347;50.844;4.490;2022-09-30T20:56:12;14.20;99.90
14521;DHT22;7347;50.844;4.490;2022-09-30T20:58:39;14.20;99.90
14521;DHT22;7347;50.844;4.490;2022-09-30T21:01:08;14.20;99.90
14521;DHT22;7347;50.844;4.490;2022-09-30T21:03:37;14.20;99.90
14521;DHT22;7347;50.844;4.490;2022-09-30T21:06:05;14.20;99.90
14521;DHT22;7347;50.844;4.490;2022-09-30T21:08:35;14.20;99.90
14521;DHT22;7347;50.844;4.490;2022-09-30T21:11:04;14.30;99.90
14521;DHT22;7347;50.844;4.490;2022-09-30T21:13:31;14.40;99.90
14521;DHT22;7347;50.844;4.490;2022-09-30T21:16:00;14.40;99.90
14521;DHT22;7347;50.844;4.490;2022-09-30T21:18:28;14.40;99.90
14521;DHT22;7347;50.844;4.490;2022-09-30T21:20:55;14.30;99.90
